PDT,Max TemperatureF,Mean TemperatureF,Min TemperatureF,Max Dew PointF,MeanDew PointF,Min DewpointF,Max Humidity, Mean Humidity, Min Humidity, Max Sea Level PressureIn, Mean Sea Level PressureIn, Min Sea Level PressureIn, Max VisibilityMiles, Mean VisibilityMiles, Min VisibilityMiles, Max Wind SpeedMPH, Mean Wind SpeedMPH, Max Gust SpeedMPH,PrecipitationIn, CloudCover, Events, WindDirDegrees
2013-3-1,87,64,41,33,24,15,40,24,8,30.33,30.25,30.16,10,10,10,12,5,14,0.00,0,,338
2013-3-2,86,64,42,36,30,26,58,35,12,30.23,30.13,30.01,10,10,10,13,5,17,0.00,0,,1
2013-3-3,89,69,49,49,33,18,54,31,8,30.00,29.90,29.81,10,10,7,23,5,31,0.00,2,,282
2013-3-4,83,68,53,44,39,33,53,35,17,30.01,29.94,29.88,10,10,10,23,8,30,0.00,0,,320
2013-3-5,81,64,47,46,42,37,80,51,21,30.04,29.96,29.88,10,10,9,17,5,23,0.00,0,,47
2013-3-6,78,68,58,44,38,31,55,37,18,30.00,29.92,29.84,10,10,10,25,13,33,0.00,0,,335
2013-3-7,71,59,46,42,40,36,71,52,33,29.91,29.86,29.81,10,10,10,16,7,22,0.00,1,,336
2013-3-8,66,57,47,51,38,29,100,63,26,29.94,29.83,29.75,10,10,10,26,11,35,0.07,3,Rain,306
2013-3-9,74,56,38,42,37,33,85,54,23,30.11,30.02,29.94,10,10,10,17,4,21,0.00,1,,326
2013-3-10,81,64,46,41,23,12,71,40,8,30.24,30.15,30.07,10,10,10,17,11,23,0.00,0,,314
2013-3-11,85,62,38,35,25,16,54,31,8,30.15,30.07,29.96,10,10,10,10,5,15,0.00,0,,9
2013-3-12,91,68,44,38,31,22,60,34,8,30.06,30.00,29.94,10,10,10,13,5,16,0.00,0,,14
2013-3-13,97,72,47,40,33,25,61,35,8,30.09,30.02,29.95,10,10,10,13,5,18,0.00,0,,335
2013-3-14,100,76,51,40,35,27,55,32,8,30.04,29.97,29.89,10,10,10,13,5,17,0.00,0,,358
2013-3-15,95,74,52,49,39,31,59,36,12,29.93,29.85,29.77,10,10,10,17,6,23,0.00,0,,51
2013-3-16,97,77,57,43,34,24,44,26,8,29.80,29.74,29.65,10,10,10,23,7,28,0.00,0,,302
2013-3-17,94,81,67,45,34,15,37,22,6,29.88,29.78,29.71,10,10,10,25,10,32,0.00,0,,320
2013-3-18,85,68,51,47,44,37,62,41,19,29.94,29.86,29.81,10,10,8,17,6,24,0.00,0,,274
2013-3-19,92,78,64,48,44,34,52,33,14,29.96,29.91,29.86,10,9,7,20,8,26,0.00,0,,326
2013-3-20,90,73,55,54,43,32,62,39,15,29.96,29.88,29.78,10,10,10,24,8,31,0.00,0,,1
2013-3-21,92,79,66,48,41,28,47,29,11,29.81,29.71,29.63,10,10,10,21,10,28,0.00,0,,329
2013-3-22,89,75,61,48,34,17,55,31,7,29.78,29.70,29.64,10,10,10,22,11,28,0.00,0,,318
2013-3-23,84,71,58,44,23,2,46,26,5,29.97,29.89,29.79,10,10,10,18,8,25,0.00,0,,58
2013-3-24,85,65,44,31,23,12,49,28,7,30.00,29.92,29.83,10,10,10,10,5,17,0.00,0,,28
2013-3-25,87,64,41,35,27,12,65,36,6,29.94,29.87,29.81,10,10,10,15,5,20,0.00,0,,68
2013-3-26,88,70,52,42,35,25,55,33,11,29.85,29.79,29.72,10,10,10,10,3,15,0.00,0,,59
2013-3-27,88,72,55,46,37,33,51,33,15,29.89,29.83,29.78,10,10,10,17,7,22,0.00,0,,317
2013-3-28,87,69,51,45,40,32,63,39,15,29.98,29.93,29.88,10,10,10,15,5,20,0.00,0,,111
2013-3-29,87,69,51,50,44,38,66,42,18,30.04,29.97,29.92,10,10,10,15,6,20,0.00,0,,121
2013-3-30,91,78,64,50,44,36,52,33,14,29.98,29.93,29.86,10,10,10,10,6,24,0.00,0,,311
2013-3-31,88,77,66,47,40,33,37,27,16,29.98,29.91,29.85,10,10,10,22,12,29,0.00,0,,319